Terminal Aerodrome Forecast
Issued by NWS

Home | Current Version | Previous Version | Text Only | Print | Product List | Glossary On
Versions: 1 2 3 4 5 6 7 8 9 10 11 12 13 14
000
FTUS41 KLWX 012300
TAFMTN
TAF
KMTN 012328Z 0200/0224 16005KT P6SM SCT060 BKN250
     FM020100 00000KT P6SM SCT090 BKN250
     FM020900 VRB03KT 3SM BR SCT050
     FM021300 28006KT P6SM SCT050
     FM022000 22009KT P6SM BKN050
      AMD NOT SKED 0202/0212=

USA.gov is the U.S. government's official web portal to all federal, state and local government web resources and services.